Time;durP1;ratioP1;P1;durP2;ratioP2;P2;SDS_P1;SDS_P2;PMS_P1;PMS_P2;Temp;Humidity;BMP_temperature;BMP_pressure;BME280_temperature;BME280_humidity;BME280_pressure;Samples;Min_cycle;Max_cycle;Signal;HPM_P1;HPM_P2
2022/06/09 00:02:23;;;;;;;2.97;1.98;;;13.50;99.90;;;;;;5068165;28;20065;-62
2022/06/09 00:04:49;;;;;;;4.57;1.92;;;13.50;99.90;;;;;;5064961;28;20031;-63
2022/06/09 00:07:17;;;;;;;4.25;2.50;;;13.50;99.90;;;;;;5062630;28;20496;-62
2022/06/09 00:09:50;;;;;;;4.18;2.20;;;13.50;99.90;;;;;;5065007;28;20154;-63
2022/06/09 00:12:16;;;;;;;6.00;2.47;;;13.40;99.90;;;;;;5067316;28;20033;-62
2022/06/09 00:14:42;;;;;;;3.58;2.30;;;13.40;99.90;;;;;;5065044;28;20021;-63
2022/06/09 00:17:08;;;;;;;5.65;2.50;;;13.40;99.90;;;;;;5066796;28;20106;-62
2022/06/09 00:19:33;;;;;;;5.68;2.60;;;13.40;99.90;;;;;;5065463;28;20056;-63
2022/06/09 00:21:59;;;;;;;6.35;2.70;;;13.40;99.90;;;;;;5057690;28;20446;-63
2022/06/09 00:24:25;;;;;;;6.60;2.50;;;13.40;99.90;;;;;;5060482;28;20467;-63
2022/06/09 00:26:51;;;;;;;6.65;2.50;;;13.50;99.90;;;;;;5064422;28;20036;-62
2022/06/09 00:29:16;;;;;;;5.45;2.60;;;13.50;99.90;;;;;;5066712;28;20040;-62
2022/06/09 00:31:42;;;;;;;5.82;2.50;;;13.50;99.90;;;;;;5061859;28;20048;-62
2022/06/09 00:34:09;;;;;;;3.65;2.30;;;13.50;99.90;;;;;;5070191;28;20174;-62
2022/06/09 00:36:35;;;;;;;6.03;2.42;;;13.50;99.90;;;;;;5067075;28;20051;-63
2022/06/09 00:39:01;;;;;;;4.07;2.50;;;13.50;99.90;;;;;;5071424;28;20032;-63
2022/06/09 00:41:28;;;;;;;4.88;2.30;;;13.50;99.90;;;;;;5069668;28;20040;-63
2022/06/09 00:44:11;;;;;;;6.25;2.30;;;13.60;99.90;;;;;;5069513;28;20121;-62
2022/06/09 00:46:38;;;;;;;5.88;2.33;;;13.60;99.90;;;;;;5068981;28;20493;-62
2022/06/09 00:49:14;;;;;;;5.55;2.30;;;13.70;99.90;;;;;;5070402;28;20155;-62
2022/06/09 00:51:45;;;;;;;3.25;2.08;;;13.70;99.90;;;;;;5068447;28;20153;-63
2022/06/09 00:54:20;;;;;;;3.92;2.42;;;13.70;99.90;;;;;;5070199;28;20036;-63
2022/06/09 00:57:05;;;;;;;4.10;1.98;;;13.70;99.90;;;;;;5067855;28;20028;-62
2022/06/09 00:59:34;;;;;;;3.38;2.17;;;13.80;99.90;;;;;;5070157;28;20047;-63
2022/06/09 01:02:01;;;;;;;5.53;2.55;;;13.80;99.90;;;;;;5069482;28;20039;-62
2022/06/09 01:04:30;;;;;;;11.18;2.80;;;13.80;99.90;;;;;;5069559;28;20036;-63
2022/06/09 01:07:09;;;;;;;13.35;2.08;;;13.90;99.90;;;;;;5068669;28;20062;-63
2022/06/09 01:09:35;;;;;;;5.00;2.83;;;13.90;99.90;;;;;;5069759;28;20055;-63
2022/06/09 01:12:01;;;;;;;4.35;2.75;;;14.00;99.90;;;;;;5069113;28;20474;-62
2022/06/09 01:14:29;;;;;;;4.80;2.50;;;14.00;99.90;;;;;;5068415;28;20024;-63
2022/06/09 01:17:07;;;;;;;7.15;2.55;;;14.00;99.90;;;;;;5066112;28;20924;-62
2022/06/09 01:20:07;;;;;;;10.70;2.53;;;13.90;99.90;;;;;;5067736;28;20052;-63
2022/06/09 01:22:51;;;;;;;4.30;2.50;;;13.80;99.90;;;;;;5070523;28;20028;-63
2022/06/09 01:25:26;;;;;;;6.28;2.70;;;13.80;99.90;;;;;;5068519;28;20032;-62
2022/06/09 01:27:57;;;;;;;6.53;2.83;;;13.80;99.90;;;;;;5067167;28;20215;-62
2022/06/09 01:30:51;;;;;;;5.88;3.28;;;13.80;99.90;;;;;;5069254;28;20024;-62
2022/06/09 01:33:46;;;;;;;5.63;3.00;;;13.80;99.90;;;;;;5069251;28;20056;-62
2022/06/09 01:36:14;;;;;;;6.47;3.63;;;13.80;99.90;;;;;;5067556;28;20043;-62
2022/06/09 01:38:53;;;;;;;11.00;4.30;;;13.80;99.90;;;;;;5066169;28;20028;-64
2022/06/09 01:41:22;;;;;;;5.88;3.50;;;13.80;99.90;;;;;;5065935;28;20033;-62
2022/06/09 01:43:49;;;;;;;4.40;3.00;;;13.80;99.90;;;;;;5066578;28;20029;-62
2022/06/09 01:46:33;;;;;;;8.07;3.72;;;13.80;99.90;;;;;;5069105;28;20090;-62
2022/06/09 01:49:12;;;;;;;6.90;3.53;;;13.90;99.90;;;;;;5067321;28;20028;-62
2022/06/09 01:51:45;;;;;;;6.50;3.20;;;13.80;99.90;;;;;;5068524;28;20111;-62
2022/06/09 01:54:29;;;;;;;8.90;3.53;;;13.80;99.90;;;;;;5062128;28;21499;-62
2022/06/09 01:57:06;;;;;;;7.65;3.22;;;13.80;99.90;;;;;;5069261;28;20056;-62
2022/06/09 01:59:39;;;;;;;5.35;2.92;;;13.70;99.90;;;;;;5063837;28;20048;-62
2022/06/09 02:02:11;;;;;;;5.57;2.83;;;13.80;99.90;;;;;;5062433;28;20062;-62
2022/06/09 02:04:43;;;;;;;4.72;2.45;;;13.80;99.90;;;;;;5060463;28;20036;-62
2022/06/09 02:07:10;;;;;;;4.55;2.50;;;13.70;99.90;;;;;;5063018;28;20369;-62
2022/06/09 02:09:39;;;;;;;3.53;2.10;;;13.70;99.90;;;;;;5068055;28;20036;-62
2022/06/09 02:12:12;;;;;;;5.50;2.42;;;13.70;99.90;;;;;;5068467;28;20025;-62
2022/06/09 02:14:40;;;;;;;4.95;2.40;;;13.70;99.90;;;;;;5067784;28;20036;-62
2022/06/09 02:17:07;;;;;;;4.63;2.72;;;13.70;99.90;;;;;;5060160;28;20478;-62
2022/06/09 02:19:35;;;;;;;5.68;3.03;;;13.70;99.90;;;;;;5061437;28;20041;-62
2022/06/09 02:22:03;;;;;;;5.13;2.88;;;13.80;99.90;;;;;;5067717;28;20020;-62
2022/06/09 02:24:29;;;;;;;5.43;3.38;;;13.80;99.90;;;;;;5066069;28;20580;-62
2022/06/09 02:26:55;;;;;;;5.80;2.58;;;13.70;99.90;;;;;;5067735;28;20027;-62
2022/06/09 02:29:21;;;;;;;4.03;2.80;;;13.70;99.90;;;;;;5067290;28;20032;-62
2022/06/09 02:31:47;;;;;;;4.65;2.80;;;13.70;99.90;;;;;;5064597;28;20083;-62
2022/06/09 02:34:13;;;;;;;4.80;2.70;;;13.70;99.90;;;;;;5066865;28;20040;-62
2022/06/09 02:36:39;;;;;;;6.50;3.40;;;13.70;99.90;;;;;;5069283;28;20028;-62
2022/06/09 02:39:06;;;;;;;7.57;2.50;;;13.70;99.90;;;;;;5065868;28;20094;-63
2022/06/09 02:41:32;;;;;;;4.57;2.95;;;13.70;99.90;;;;;;5067783;28;20075;-62
2022/06/09 02:43:58;;;;;;;4.20;2.38;;;13.80;99.90;;;;;;5060386;28;20048;-62
2022/06/09 02:46:24;;;;;;;7.50;2.60;;;13.70;99.90;;;;;;5036510;28;20099;-62
2022/06/09 02:48:49;;;;;;;5.60;2.50;;;13.70;99.90;;;;;;5048385;28;20491;-62
2022/06/09 02:51:23;;;;;;;4.80;2.33;;;13.70;99.90;;;;;;5064067;28;20032;-63
2022/06/09 02:53:50;;;;;;;3.42;2.03;;;13.60;99.90;;;;;;5067937;28;20044;-63
2022/06/09 02:56:16;;;;;;;4.40;2.55;;;13.60;99.90;;;;;;5065302;28;20033;-62
2022/06/09 02:58:41;;;;;;;4.78;2.42;;;13.60;99.90;;;;;;5048858;28;20029;-62
2022/06/09 03:01:07;;;;;;;4.90;2.60;;;13.60;99.90;;;;;;5061742;28;20462;-62
2022/06/09 03:03:33;;;;;;;3.60;2.42;;;13.70;99.90;;;;;;5068734;28;20079;-62
2022/06/09 03:05:59;;;;;;;4.60;2.45;;;13.70;99.90;;;;;;5065500;28;20386;-63
2022/06/09 03:08:26;;;;;;;4.10;2.20;;;13.70;99.90;;;;;;5068810;28;20123;-62
2022/06/09 03:10:52;;;;;;;13.75;2.65;;;13.70;99.90;;;;;;5060655;28;20680;-63
2022/06/09 03:13:18;;;;;;;5.75;2.55;;;13.70;99.90;;;;;;5061433;28;20037;-62
2022/06/09 03:15:47;;;;;;;6.30;2.47;;;13.60;99.90;;;;;;5061602;28;20029;-63
2022/06/09 03:18:14;;;;;;;4.65;2.20;;;13.60;99.90;;;;;;5064947;28;20082;-63
2022/06/09 03:20:40;;;;;;;3.42;2.10;;;13.60;99.90;;;;;;5063595;28;20028;-62
2022/06/09 03:23:05;;;;;;;3.63;2.20;;;13.50;99.90;;;;;;5062812;28;20035;-63
2022/06/09 03:25:31;;;;;;;5.30;2.13;;;13.50;99.90;;;;;;5067382;28;20036;-63
2022/06/09 03:27:57;;;;;;;3.45;2.00;;;13.50;99.90;;;;;;5062252;28;20827;-62
2022/06/09 03:30:23;;;;;;;4.13;2.10;;;13.50;99.90;;;;;;5065227;28;20031;-63
2022/06/09 03:32:48;;;;;;;2.95;1.70;;;13.50;99.90;;;;;;5063212;28;20058;-62
2022/06/09 03:35:14;;;;;;;4.53;2.08;;;13.50;99.90;;;;;;5064013;28;20036;-62
2022/06/09 03:37:40;;;;;;;4.00;2.10;;;13.50;99.90;;;;;;5066193;28;20032;-62
2022/06/09 03:40:10;;;;;;;5.75;2.08;;;13.50;99.90;;;;;;5063087;28;20658;-62
2022/06/09 03:42:36;;;;;;;2.00;1.40;;;13.50;99.90;;;;;;5067901;28;20107;-62
2022/06/09 03:45:02;;;;;;;2.67;1.70;;;13.40;99.90;;;;;;5061952;28;20545;-62
2022/06/09 03:47:27;;;;;;;4.72;1.38;;;13.40;99.90;;;;;;5067774;28;20363;-62
2022/06/09 03:49:53;;;;;;;2.85;1.20;;;13.40;99.90;;;;;;5065121;28;20032;-62
2022/06/09 03:52:19;;;;;;;4.82;1.15;;;13.40;99.90;;;;;;5068380;28;20348;-62
2022/06/09 03:54:44;;;;;;;2.97;1.10;;;13.30;99.90;;;;;;5048728;28;20055;-62
2022/06/09 03:57:10;;;;;;;2.47;1.23;;;13.30;99.90;;;;;;5060781;28;20433;-63
2022/06/09 03:59:36;;;;;;;1.85;1.02;;;13.30;99.90;;;;;;5042829;28;20048;-63
2022/06/09 04:02:02;;;;;;;5.75;1.23;;;13.20;99.90;;;;;;5051634;28;20047;-61
2022/06/09 04:04:27;;;;;;;4.72;1.83;;;13.10;99.90;;;;;;5056538;28;20064;-61
2022/06/09 04:06:53;;;;;;;2.50;1.10;;;13.10;99.90;;;;;;5060704;28;20099;-61
2022/06/09 04:09:19;;;;;;;4.93;1.08;;;13.10;99.90;;;;;;5065180;28;20087;-60
2022/06/09 04:11:45;;;;;;;4.75;1.25;;;13.10;99.90;;;;;;5067050;28;20021;-60
2022/06/09 04:14:10;;;;;;;2.15;0.93;;;13.10;99.90;;;;;;5069151;28;20036;-60
2022/06/09 04:16:40;;;;;;;1.55;1.02;;;13.00;99.90;;;;;;5061975;28;20028;-61
2022/06/09 04:19:08;;;;;;;2.28;0.90;;;13.00;99.90;;;;;;5062891;28;20025;-61
2022/06/09 04:21:34;;;;;;;2.05;1.23;;;13.00;99.90;;;;;;5061580;28;20029;-61
2022/06/09 04:24:00;;;;;;;3.60;1.50;;;13.00;99.90;;;;;;5061052;28;20027;-63
2022/06/09 04:26:28;;;;;;;2.38;1.02;;;13.00;99.90;;;;;;5071049;28;20041;-63
2022/06/09 04:28:54;;;;;;;4.07;1.20;;;13.00;99.90;;;;;;5058908;28;20090;-62
2022/06/09 04:31:20;;;;;;;4.93;1.60;;;13.00;99.90;;;;;;5061030;28;20079;-62
2022/06/09 04:33:46;;;;;;;2.97;1.40;;;13.00;99.90;;;;;;5067128;28;20060;-60
2022/06/09 04:36:13;;;;;;;2.83;1.58;;;13.00;99.90;;;;;;5061622;28;20036;-71
2022/06/09 04:38:39;;;;;;;3.35;1.70;;;13.10;99.90;;;;;;5059106;28;20069;-70
2022/06/09 04:41:10;;;;;;;3.05;1.50;;;13.10;99.90;;;;;;5066806;28;20475;-65
2022/06/09 04:43:40;;;;;;;2.08;1.27;;;13.10;99.90;;;;;;5065709;28;20036;-66
2022/06/09 04:46:08;;;;;;;4.18;1.45;;;13.10;99.90;;;;;;5069654;28;20090;-66
2022/06/09 04:48:36;;;;;;;3.13;1.30;;;13.10;99.90;;;;;;5069957;28;20095;-66
2022/06/09 04:51:05;;;;;;;3.78;1.42;;;13.20;99.90;;;;;;5067617;28;20047;-66
2022/06/09 04:53:31;;;;;;;3.35;1.58;;;13.20;99.90;;;;;;5066373;28;20125;-66
2022/06/09 04:55:56;;;;;;;3.47;1.70;;;13.20;99.90;;;;;;5063053;28;20463;-67
2022/06/09 04:58:23;;;;;;;9.10;1.83;;;13.30;99.90;;;;;;5059459;28;20376;-66
2022/06/09 05:00:48;;;;;;;5.15;2.00;;;13.30;99.90;;;;;;5053789;28;20502;-65
2022/06/09 05:03:14;;;;;;;3.60;2.10;;;13.40;99.90;;;;;;5058558;28;20111;-66
2022/06/09 05:05:43;;;;;;;4.70;2.13;;;13.40;99.90;;;;;;5069538;28;20028;-67
2022/06/09 05:08:11;;;;;;;5.00;2.10;;;13.40;99.90;;;;;;5036185;28;20632;-67
2022/06/09 05:10:38;;;;;;;7.45;2.45;;;13.50;99.90;;;;;;5067146;28;20138;-65
2022/06/09 05:13:05;;;;;;;5.68;2.97;;;13.60;99.90;;;;;;5068719;28;20443;-66
2022/06/09 05:15:33;;;;;;;6.55;3.28;;;13.60;99.90;;;;;;5055871;28;20036;-66
2022/06/09 05:17:58;;;;;;;6.43;3.85;;;13.60;99.90;;;;;;5066970;28;20445;-67
2022/06/09 05:20:24;;;;;;;9.10;3.70;;;13.70;99.90;;;;;;5064694;28;20091;-64
2022/06/09 05:22:50;;;;;;;8.25;3.92;;;13.80;99.90;;;;;;5070613;28;20036;-63
2022/06/09 05:25:17;;;;;;;7.25;4.35;;;13.80;99.90;;;;;;5068844;28;20020;-65
2022/06/09 05:27:44;;;;;;;11.10;4.55;;;13.80;99.90;;;;;;5070528;28;20039;-65
2022/06/09 05:30:14;;;;;;;10.60;4.63;;;13.80;99.90;;;;;;5053463;28;20535;-67
2022/06/09 05:32:40;;;;;;;;;;;13.90;99.90;;;;;;5065157;28;20051;-63
2022/06/09 05:35:06;;;;;;;11.07;5.00;;;13.80;99.90;;;;;;5066353;28;19908;-62
2022/06/09 05:45:45;;;;;;;7.80;5.07;;;14.00;99.90;;;;;;5053202;28;20568;-62
2022/06/09 05:48:11;;;;;;;13.75;4.70;;;14.00;99.90;;;;;;5065936;28;20040;-63
2022/06/09 05:50:37;;;;;;;9.77;5.05;;;14.00;99.90;;;;;;5067268;28;20070;-63
2022/06/09 05:53:03;;;;;;;8.80;5.10;;;14.00;99.90;;;;;;5065432;28;20029;-63
2022/06/09 05:55:28;;;;;;;10.88;5.35;;;14.00;99.90;;;;;;5065514;28;20055;-62
2022/06/09 05:57:54;;;;;;;11.60;5.55;;;14.00;99.90;;;;;;5065616;28;20160;-62
2022/06/09 06:00:20;;;;;;;10.23;5.82;;;14.00;99.90;;;;;;5063474;28;20037;-63
2022/06/09 06:02:45;;;;;;;12.18;6.00;;;14.10;99.90;;;;;;5059697;28;20484;-62
2022/06/09 06:06:33;;;;;;;12.02;6.15;;;14.10;99.90;;;;;;5062090;28;20886;-62
2022/06/09 06:07:57;;;;;;;13.73;6.07;;;14.10;99.90;;;;;;5068302;28;20047;-61
2022/06/09 06:10:22;;;;;;;12.77;5.82;;;14.10;99.90;;;;;;5064135;28;20040;-61
2022/06/09 06:12:48;;;;;;;14.13;6.25;;;14.10;99.90;;;;;;5055942;28;20438;-63
2022/06/09 06:15:14;;;;;;;9.73;5.68;;;14.20;99.90;;;;;;5062993;28;20117;-61
2022/06/09 06:17:39;;;;;;;9.70;5.53;;;14.20;99.90;;;;;;5068918;28;20040;-62
2022/06/09 06:20:05;;;;;;;10.93;6.07;;;14.20;99.90;;;;;;5066767;28;20039;-61
2022/06/09 06:22:31;;;;;;;11.05;6.22;;;14.30;99.90;;;;;;5069363;28;20036;-60
2022/06/09 06:24:59;;;;;;;9.70;5.97;;;14.40;99.90;;;;;;5067745;28;20922;-60
2022/06/09 06:27:25;;;;;;;11.48;6.05;;;14.50;99.90;;;;;;5068145;28;20056;-60
2022/06/09 06:29:51;;;;;;;12.20;6.30;;;14.50;99.90;;;;;;5055946;28;20064;-60
2022/06/09 06:32:17;;;;;;;11.05;5.85;;;14.50;99.90;;;;;;5055541;28;20079;-60
2022/06/09 06:34:42;;;;;;;11.70;6.25;;;14.50;99.90;;;;;;5049796;28;20032;-61
2022/06/09 06:37:08;;;;;;;10.43;6.22;;;14.40;99.90;;;;;;5031536;28;20043;-60
2022/06/09 06:39:34;;;;;;;9.88;6.15;;;14.30;99.90;;;;;;5067804;28;20043;-60
2022/06/09 06:42:00;;;;;;;11.32;5.43;;;14.20;99.90;;;;;;5065709;28;20036;-60
2022/06/09 06:44:25;;;;;;;11.63;5.90;;;14.10;99.90;;;;;;5062253;28;20025;-60
2022/06/09 06:46:51;;;;;;;10.38;5.93;;;14.10;99.90;;;;;;5051499;28;20028;-61
2022/06/09 06:49:16;;;;;;;16.58;6.43;;;14.20;99.90;;;;;;5067551;28;20025;-61
2022/06/09 06:51:42;;;;;;;16.48;6.18;;;14.10;99.90;;;;;;5062981;28;20055;-61
2022/06/09 06:54:08;;;;;;;11.48;6.53;;;14.20;99.90;;;;;;5066724;28;20032;-61
2022/06/09 06:56:35;;;;;;;12.60;5.93;;;14.10;99.90;;;;;;5065484;28;20029;-60
2022/06/09 06:59:01;;;;;;;13.15;6.93;;;14.20;99.90;;;;;;5063370;28;20481;-61
2022/06/09 07:01:27;;;;;;;11.43;6.07;;;14.20;99.90;;;;;;5064613;28;20037;-61
2022/06/09 07:03:54;;;;;;;15.90;5.60;;;14.40;99.90;;;;;;5060294;28;20050;-61
2022/06/09 07:06:20;;;;;;;10.32;5.85;;;14.40;99.90;;;;;;5067979;28;20029;-60
2022/06/09 07:08:46;;;;;;;8.80;5.50;;;14.50;99.90;;;;;;5059232;28;20378;-60
2022/06/09 07:11:12;;;;;;;11.15;5.15;;;14.60;99.90;;;;;;5066925;28;20051;-61
2022/06/09 07:13:37;;;;;;;9.48;5.07;;;14.60;99.90;;;;;;5065616;28;20039;-60
2022/06/09 07:16:05;;;;;;;10.20;4.43;;;14.70;99.90;;;;;;5052533;28;20032;-60
2022/06/09 07:18:31;;;;;;;7.57;4.18;;;14.80;99.90;;;;;;5055338;28;20121;-60
2022/06/09 07:20:57;;;;;;;7.35;4.13;;;14.90;99.90;;;;;;5066044;28;20162;-60
2022/06/09 07:23:24;;;;;;;7.35;5.15;;;15.00;99.90;;;;;;5064098;28;20060;-60
2022/06/09 07:25:50;;;;;;;11.43;4.50;;;15.20;99.90;;;;;;5064693;28;20036;-61
2022/06/09 07:28:16;;;;;;;7.50;4.40;;;15.50;99.90;;;;;;5039925;28;20033;-60
2022/06/09 07:30:42;;;;;;;8.60;4.18;;;15.70;99.90;;;;;;5050359;28;20035;-60
2022/06/09 07:33:08;;;;;;;9.57;4.53;;;15.60;99.90;;;;;;5066528;28;20033;-60
2022/06/09 07:35:36;;;;;;;5.97;3.13;;;15.70;99.90;;;;;;5066593;28;20032;-60
2022/06/09 07:38:05;;;;;;;6.53;3.33;;;15.80;99.90;;;;;;5065950;28;20036;-60
2022/06/09 07:40:33;;;;;;;7.45;2.65;;;16.10;99.90;;;;;;5068313;28;20518;-60
2022/06/09 07:42:58;;;;;;;5.78;2.90;;;16.00;99.90;;;;;;5065460;28;20040;-61
2022/06/09 07:45:24;;;;;;;7.38;2.63;;;16.00;99.90;;;;;;5073839;28;20375;-60
2022/06/09 07:47:50;;;;;;;6.82;2.50;;;16.20;99.90;;;;;;5071711;28;20028;-60
2022/06/09 07:50:16;;;;;;;5.60;2.47;;;16.20;99.90;;;;;;5074347;28;20382;-60
2022/06/09 07:52:43;;;;;;;3.95;2.40;;;15.90;99.90;;;;;;5072452;28;20401;-60
2022/06/09 07:55:10;;;;;;;7.05;3.05;;;15.70;99.90;;;;;;5073942;28;20039;-60
2022/06/09 07:57:36;;;;;;;8.43;3.08;;;15.90;99.90;;;;;;5073819;28;20138;-60
2022/06/09 08:00:05;;;;;;;6.38;2.70;;;16.20;99.90;;;;;;5064472;28;20040;-60
2022/06/09 08:02:30;;;;;;;4.68;2.83;;;16.30;99.90;;;;;;5070455;28;20108;-60
2022/06/09 08:04:56;;;;;;;6.57;2.75;;;16.50;99.90;;;;;;5074132;28;20169;-60
2022/06/09 08:07:22;;;;;;;7.18;2.20;;;16.50;99.90;;;;;;5071740;28;20366;-60
2022/06/09 08:09:48;;;;;;;5.63;1.77;;;16.40;99.90;;;;;;5055258;28;20091;-60
2022/06/09 08:12:14;;;;;;;5.93;2.30;;;16.30;99.90;;;;;;5060773;28;20398;-59
2022/06/09 08:14:39;;;;;;;4.15;2.20;;;16.20;99.90;;;;;;5057391;28;20025;-60
2022/06/09 08:17:05;;;;;;;8.00;2.47;;;16.10;99.90;;;;;;5071284;28;20390;-60
2022/06/09 08:19:32;;;;;;;6.05;1.98;;;16.20;99.90;;;;;;5058521;28;20040;-59
2022/06/09 08:21:57;;;;;;;4.78;1.90;;;16.40;99.90;;;;;;5074783;28;20032;-60
2022/06/09 08:24:23;;;;;;;5.30;2.20;;;16.60;99.90;;;;;;5072780;28;20030;-60
2022/06/09 08:26:49;;;;;;;5.55;2.17;;;16.80;99.90;;;;;;5060304;28;20028;-60
2022/06/09 08:29:15;;;;;;;5.38;2.00;;;17.00;99.90;;;;;;5070767;28;20103;-60
2022/06/09 08:31:42;;;;;;;5.13;2.20;;;17.30;99.90;;;;;;5073050;28;20517;-60
2022/06/09 08:34:09;;;;;;;3.97;1.77;;;17.30;99.90;;;;;;5072598;28;20111;-60
2022/06/09 08:36:35;;;;;;;9.00;1.80;;;17.30;99.90;;;;;;5072842;28;20032;-60
2022/06/09 08:39:01;;;;;;;9.40;1.92;;;17.10;99.90;;;;;;5062295;28;20016;-60
2022/06/09 08:41:50;;;;;;;3.92;1.77;;;16.90;99.90;;;;;;5072342;28;20078;-60
2022/06/09 08:44:27;;;;;;;8.73;2.05;;;16.80;99.90;;;;;;5069856;28;20060;-59
2022/06/09 08:47:25;;;;;;;3.38;1.75;;;16.60;99.90;;;;;;5058394;28;20025;-60
2022/06/09 08:50:01;;;;;;;6.38;2.20;;;16.60;99.90;;;;;;5056395;28;20044;-59
2022/06/09 08:52:53;;;;;;;4.45;2.00;;;16.50;99.90;;;;;;5061901;28;20051;-60
2022/06/09 08:55:28;;;;;;;4.25;1.77;;;16.30;99.90;;;;;;5070362;28;20493;-60
2022/06/09 08:57:58;;;;;;;11.75;2.30;;;16.30;99.90;;;;;;5066556;28;20055;-59
2022/06/09 09:00:27;;;;;;;;;;;16.30;99.90;;;;;;5058999;28;20107;-61
2022/06/09 09:02:59;;;;;;;4.05;1.73;;;16.40;99.90;;;;;;5061430;28;19922;-59
2022/06/09 09:05:39;;;;;;;5.47;2.05;;;16.80;99.90;;;;;;5061139;28;20040;-61
2022/06/09 09:08:07;;;;;;;6.57;1.90;;;17.20;99.90;;;;;;5063996;28;20411;-60
2022/06/09 09:10:44;;;;;;;5.18;1.45;;;17.50;99.90;;;;;;5071119;28;20037;-61
2022/06/09 09:13:44;;;;;;;8.25;2.30;;;17.80;99.90;;;;;;5064995;28;20466;-60
2022/06/09 09:16:19;;;;;;;4.80;1.63;;;18.00;99.90;;;;;;5056115;28;20387;-60
2022/06/09 09:18:48;;;;;;;6.10;1.77;;;18.00;99.90;;;;;;5069497;28;20135;-60
2022/06/09 09:21:35;;;;;;;5.28;1.45;;;18.30;99.90;;;;;;5068269;28;20111;-60
2022/06/09 09:24:21;;;;;;;5.05;1.75;;;18.40;99.90;;;;;;5070200;28;20028;-60
2022/06/09 09:26:59;;;;;;;5.80;1.80;;;18.50;99.90;;;;;;5047581;28;20437;-60
2022/06/09 09:29:30;;;;;;;6.00;1.63;;;18.70;99.90;;;;;;5066854;28;20073;-60
2022/06/09 09:32:10;;;;;;;2.45;1.08;;;18.80;99.90;;;;;;5050279;28;20041;-59
2022/06/09 09:34:41;;;;;;;5.00;1.77;;;18.80;99.90;;;;;;5057916;28;20028;-60
2022/06/09 09:37:26;;;;;;;5.68;1.17;;;18.60;99.90;;;;;;5053826;28;20123;-60
2022/06/09 09:40:12;;;;;;;5.65;1.20;;;18.70;99.90;;;;;;5070346;28;20040;-60
2022/06/09 09:42:42;;;;;;;7.30;1.40;;;18.90;99.90;;;;;;5063883;28;20471;-60
2022/06/09 09:45:11;;;;;;;6.32;1.33;;;18.80;99.90;;;;;;5049999;28;20017;-61
2022/06/09 09:47:57;;;;;;;4.80;1.30;;;18.90;99.90;;;;;;5062137;28;20040;-60
2022/06/09 09:50:46;;;;;;;4.47;1.40;;;19.10;99.90;;;;;;5064897;28;20043;-60
2022/06/09 09:53:21;;;;;;;5.60;2.15;;;19.20;99.90;;;;;;5068043;28;20060;-60
2022/06/09 09:56:14;;;;;;;5.32;1.98;;;19.00;99.90;;;;;;5068971;28;20466;-60
2022/06/09 09:58:49;;;;;;;3.45;1.52;;;18.60;99.90;;;;;;5067050;28;20055;-61
2022/06/09 10:01:18;;;;;;;6.40;1.75;;;17.90;99.90;;;;;;5059568;28;20041;-61
2022/06/09 10:09:48;;;;;;;10.07;1.70;;;17.20;99.90;;;;;;5065983;28;20131;-60
2022/06/09 10:12:23;;;;;;;9.60;1.48;;;17.30;99.90;;;;;;5067083;28;20029;-61
2022/06/09 10:14:52;;;;;;;3.85;1.30;;;18.00;99.90;;;;;;5063230;28;20432;-61
2022/06/09 10:17:37;;;;;;;5.40;1.33;;;18.50;99.90;;;;;;5059755;28;20028;-61
2022/06/09 10:20:06;;;;;;;4.82;1.63;;;18.80;99.90;;;;;;5067654;28;20068;-61
2022/06/09 10:22:36;;;;;;;12.25;1.58;;;18.30;99.90;;;;;;5049026;28;20044;-60
2022/06/09 10:25:23;;;;;;;6.38;2.28;;;18.00;99.90;;;;;;5068633;28;20024;-60
2022/06/09 10:27:55;;;;;;;6.03;1.48;;;17.80;99.90;;;;;;5068141;28;20068;-61
2022/06/09 10:30:39;;;;;;;8.15;1.50;;;17.50;99.90;;;;;;5067733;28;20040;-61
2022/06/09 10:33:22;;;;;;;4.90;2.00;;;17.40;99.90;;;;;;5067923;28;20080;-60
2022/06/09 10:35:58;;;;;;;10.75;1.90;;;17.10;99.90;;;;;;5065735;28;20029;-59
2022/06/09 10:38:36;;;;;;;4.47;1.35;;;17.10;99.90;;;;;;5068523;28;20047;-60
2022/06/09 10:41:10;;;;;;;7.07;1.80;;;17.20;99.90;;;;;;5067546;28;20033;-59
2022/06/09 10:43:49;;;;;;;5.22;1.85;;;17.50;99.90;;;;;;5060622;28;20093;-60
2022/06/09 10:46:41;;;;;;;4.55;1.30;;;18.00;99.90;;;;;;5054012;28;20053;-60
2022/06/09 10:55:36;;;;;;;6.97;1.40;;;19.00;99.90;;;;;;5057484;28;20039;-60
2022/06/09 10:58:14;;;;;;;2.40;1.50;;;19.40;99.90;;;;;;5059150;28;20052;-59
2022/06/09 11:00:45;;;;;;;6.35;1.70;;;19.50;99.90;;;;;;5048957;28;20040;-60
2022/06/09 11:03:21;;;;;;;6.95;1.70;;;19.60;99.90;;;;;;5048515;28;20041;-60
2022/06/09 11:05:56;;;;;;;4.47;1.85;;;19.60;99.90;;;;;;5060430;28;20090;-60
2022/06/09 11:08:48;;;;;;;5.40;1.55;;;19.60;99.90;;;;;;5063744;28;20111;-61
2022/06/09 11:11:46;;;;;;;7.22;1.90;;;19.90;99.90;;;;;;5065980;28;20044;-61
2022/06/09 11:14:42;;;;;;;5.93;1.52;;;20.20;99.90;;;;;;5063745;28;20041;-60
2022/06/09 11:17:27;;;;;;;3.80;1.40;;;20.30;99.90;;;;;;5051851;28;20033;-60
2022/06/09 11:20:02;;;;;;;5.50;1.55;;;20.60;99.90;;;;;;5065980;28;20039;-60
2022/06/09 11:22:33;;;;;;;3.58;1.30;;;21.00;99.90;;;;;;5062510;28;20033;-59
2022/06/09 11:25:21;;;;;;;4.07;1.67;;;20.90;99.90;;;;;;5063276;28;20397;-60
2022/06/09 11:28:18;;;;;;;2.97;1.55;;;20.50;99.90;;;;;;5066114;28;20024;-60
2022/06/09 11:30:57;;;;;;;6.03;1.65;;;20.00;99.90;;;;;;5066084;28;20032;-60
2022/06/09 11:33:41;;;;;;;4.10;1.50;;;19.80;99.90;;;;;;5065717;28;20037;-60
2022/06/09 11:36:13;;;;;;;10.35;1.95;;;19.60;99.90;;;;;;5064593;28;20363;-60
2022/06/09 11:38:55;;;;;;;5.80;1.60;;;19.20;99.90;;;;;;5067302;28;20028;-60
2022/06/09 11:41:46;;;;;;;6.85;1.90;;;18.70;99.90;;;;;;5047421;28;20028;-60
2022/06/09 11:44:27;;;;;;;4.68;1.70;;;18.40;99.90;;;;;;5055110;28;20036;-60
2022/06/09 11:46:55;;;;;;;3.60;1.70;;;18.40;99.90;;;;;;5065787;28;20033;-60
2022/06/09 11:49:34;;;;;;;5.22;1.80;;;18.40;99.90;;;;;;5067064;28;20097;-60
2022/06/09 11:52:04;;;;;;;8.10;1.85;;;18.60;99.90;;;;;;5066957;28;20116;-60
2022/06/09 11:54:48;;;;;;;6.97;2.00;;;19.00;99.90;;;;;;5066401;28;20485;-60
2022/06/09 11:57:20;;;;;;;5.18;2.25;;;19.40;99.90;;;;;;5059655;28;20072;-61
2022/06/09 12:00:16;;;;;;;7.97;2.30;;;20.10;99.90;;;;;;5066246;28;20032;-60
2022/06/09 12:02:47;;;;;;;5.95;2.53;;;20.60;99.90;;;;;;5052204;28;20037;-60
2022/06/09 12:05:36;;;;;;;10.55;1.90;;;21.10;99.90;;;;;;5060784;28;20395;-60
2022/06/09 12:08:29;;;;;;;5.93;2.10;;;21.20;99.90;;;;;;5061502;28;20131;-60
2022/06/09 12:11:01;;;;;;;6.43;1.90;;;20.80;99.90;;;;;;5067042;28;20021;-60
2022/06/09 12:13:44;;;;;;;9.63;1.70;;;21.00;99.90;;;;;;5061479;28;20029;-60
2022/06/09 12:16:52;;;;;;;3.75;1.50;;;20.80;99.90;;;;;;5050213;28;20107;-60
2022/06/09 12:19:22;;;;;;;8.52;1.70;;;20.40;99.90;;;;;;5048192;28;20059;-60
2022/06/09 12:22:01;;;;;;;5.72;1.60;;;20.80;99.90;;;;;;5054584;28;20037;-60
2022/06/09 12:24:34;;;;;;;4.75;1.58;;;21.60;99.90;;;;;;5056438;28;20064;-60
2022/06/09 12:27:18;;;;;;;6.47;1.70;;;22.20;99.90;;;;;;5067569;28;20032;-60
2022/06/09 12:30:05;;;;;;;4.53;1.38;;;21.80;99.90;;;;;;5069869;28;20044;-60
2022/06/09 12:32:51;;;;;;;4.38;1.63;;;21.30;99.90;;;;;;5051761;28;20060;-60
2022/06/09 12:35:28;;;;;;;10.30;1.73;;;20.60;99.90;;;;;;5065748;28;20490;-60
2022/06/09 12:38:17;;;;;;;6.60;1.58;;;20.10;99.90;;;;;;5060606;28;20040;-60
2022/06/09 12:40:48;;;;;;;3.38;1.20;;;19.70;99.90;;;;;;5069274;28;20047;-60
2022/06/09 12:43:35;;;;;;;3.53;1.10;;;19.30;99.90;;;;;;5069790;28;20509;-60
2022/06/09 12:46:05;;;;;;;3.72;1.23;;;19.30;99.90;;;;;;5066646;28;20033;-60
2022/06/09 12:48:33;;;;;;;5.70;1.13;;;19.30;99.90;;;;;;5063115;28;20032;-59
2022/06/09 12:50:59;;;;;;;2.35;0.93;;;19.60;99.90;;;;;;5062391;28;20398;-59
2022/06/09 12:53:54;;;;;;;4.50;1.10;;;20.00;99.90;;;;;;5065683;28;20497;-59
2022/06/09 12:56:32;;;;;;;2.60;0.82;;;20.00;99.90;;;;;;5069109;28;20090;-60
2022/06/09 12:59:23;;;;;;;3.75;0.70;;;20.00;99.90;;;;;;5065938;28;20037;-60
2022/06/09 13:01:50;;;;;;;;;;;20.40;99.90;;;;;;5068679;28;20073;-60
2022/06/09 13:04:18;;;;;;;4.90;1.30;;;21.00;99.90;;;;;;5066950;28;19912;-61
2022/06/09 13:06:47;;;;;;;5.72;1.35;;;21.30;99.90;;;;;;5068822;28;20052;-61
2022/06/09 13:09:29;;;;;;;5.70;1.02;;;21.00;99.90;;;;;;5069142;28;20661;-60
2022/06/09 13:14:51;;;;;;;2.63;0.80;;;20.80;99.90;;;;;;5053697;28;20523;-60
2022/06/09 13:17:26;;;;;;;3.33;1.10;;;21.00;99.90;;;;;;5070460;28;20064;-60
2022/06/09 13:20:03;;;;;;;3.08;0.90;;;21.20;99.90;;;;;;5070610;28;20371;-60
2022/06/09 13:22:30;;;;;;;3.15;0.98;;;21.60;99.90;;;;;;5069944;28;20505;-60
2022/06/09 13:24:57;;;;;;;2.25;1.00;;;21.70;99.90;;;;;;5070908;28;20031;-61
2022/06/09 13:27:28;;;;;;;4.05;1.00;;;21.70;99.90;;;;;;5069811;28;20032;-60
2022/06/09 13:29:56;;;;;;;4.50;1.35;;;21.70;99.90;;;;;;5070686;28;20028;-60
2022/06/09 13:32:22;;;;;;;7.13;0.98;;;21.40;99.90;;;;;;5069397;28;20059;-61